Douradina, Brazil
Current Conditions -  °F | °C
As of 6:00 AM on Tuesday 21 Oct 2014 (Local Time) from SBMG Reporting Station
Broken Clouds Broken Clouds  
Wind Chill: 20°   Ceiling: 2000
Heat Index: 20°   Visibility: 5mi
Dew Point: 18°   Wind: 6mph
Humidity: 88%   Direction: 90°E
Pressure: 30.03"   Gusts: NA
Location:  23.38°S, 53.29°W
Report Text: SBMG 210800Z 09005KT 8000 BKN020 SCT090 20/18 Q1017
Loading
Personal Weather Stations






























Interactive Weather Map
Tropical Storm Tracking
New forecast layout! Learn more

10-Day Weather Forecast

Advertisements
Track Severe Weather on mobile